Česky Dansk Deutsch English Español Suomi Français Magyar Italiano Nederlands norsk Polski Português svenska Türkçe

 

Het Weer

Soesterberg (Nederland)

09:25, 20 November 2008 (GMT)

NWNNE
WE
SWSSE
Home            
Soesterberg De Bilt Lelystad Amsterdam Airport Schiphol Deelen Valkenburg Rotterdam Airport Zestienhoven Volkel Gilze-Rijen Eindhoven Kalkar Weelde Military Niederrhein Laarbruch De Kooy Woensdrecht Brasschaat Kleine Brogel Twenthe Antwerpen / Deurne Brueggen Leeuwarden Vlieland

Om een weerknop op uw website of weblog te plaatsen, copieer onderstaande code en plak die in uw pagina. In het eerste vakje staat HTML-code, in het tweede vakje UBB-code.


Add to Google

Details

Wind speed:4 bf, 14 kn, 7.2 m/s, 16.1 miles/h, 25.9 km/h
Wind direction:W, 280°
Visibility:Greater than 10000 m, 10 km, 32800 ft, 6.2 miles
Het Weer:moderate
Temperature:11°C, 52°F
Dew-point:9°C, 48°F
Atmospheric pressure:1010 hPa, 757.6 mmHg, 29.83 inHg, 0.997 atm
Relative humidity:87.5 %
METAR:EHSB 200925Z AUTO 28014KT 9999 11/09 Q1010

Snelkoppelingen

Actuele weersinformatie van de hele wereld. Voeg locaties toe met het plus (+) symbool. Deze snelkoppelingen kunnen worden toegevoegd aan Google.

Lid van de Technetium groep

website free tracking
StatCounter NetStat W3C Validator

17-12-2017 04:51:04
astro.technetium.be money.technetium.be phote.technetium.be tafeltennistafel.technetium.be www.ligfiets.net